Airfield :
LOGIN :

Register | Disclaimer

   EN    FR    IT 

 










Legend :    VFR   Marginal VFR   IFR   Intensive IFR   Very Intensive IFR
Visi :
Ceiling :
>= 8 km
>= 3000ft
5 to 8 km
1000 to 3000 ft
1500m to 5 km
500 to 1000 ft
800 to 1500m
200 to 500 ft
< 800m
< 200 ft
Symbols :   Thunderstorms  Fog  Heavy snow  Heavy precipitations  Wind > 20 kt
SIGMETs :     Misc.  Thunderstorms  Icing  Turbulence  Mountain Waves  Volcanic Ashes






- Airport Elevation : 335 ft
- IATA code : BEG


LYBE - Belgrade Nikola Tesla

CURRENT METAR :
  • 211600Z 11014KT CAVOK 13/09 Q1014 NOSIG

EXPIRED METARs :
  • 211530Z 11015KT CAVOK 14/08 Q1014 NOSIG
  • 211500Z 10015KT CAVOK 14/09 Q1014 NOSIG
  • 211430Z 10014KT CAVOK 15/09 Q1014 NOSIG
  • 211400Z 10015KT CAVOK 16/09 Q1014 NOSIG
  • 211330Z 09017KT 9999 SCT040 17/09 Q1014 NOSIG
  • 211300Z 12012KT 9999 SCT040 18/08 Q1014 NOSIG

TAF TAF LYBE
Valid from the 21 at 12:00 until the 22 at 12:00 UTC


211100Z 2112/2212 13014KT CAVOK TX18/2112Z TN09/2206Z
TEMPO 2118/2212 11015G25KT



MET'MAP, your aeronautical weather chart ! - Copyright ORBIFLY December 2007 - Disclaimer

ORBIFLY MET'MAP TEAM :

Programming & Development : Alexandra Zaïnal
Concept & Development : Baudouin d'Aumeries
Co-Development & Prog : Marc-Olivier Méhu
Technical & hardware support : Manuel Goepfert

Contact : metmap@orbifly.com




SOURCES & CREDITS :

   NOAA